Time;durP1;ratioP1;P1;durP2;ratioP2;P2;SDS_P1;SDS_P2;PMS_P1;PMS_P2;Temp;Humidity;BMP_temperature;BMP_pressure;BME280_temperature;BME280_humidity;BME280_pressure;Samples;Min_cycle;Max_cycle;Signal;HPM_P1;HPM_P2
2022/11/10 00:01:07;;;;;;;;;;;;;;;19.66;66.45;101580.13;7401961;19;1579;-51
2022/11/10 00:03:36;;;;;;;;;;;;;;;19.66;66.11;101578.28;7401312;19;1623;-51
2022/11/10 00:06:05;;;;;;;;;;;;;;;19.67;66.27;101584.50;7400695;19;1639;-51
2022/11/10 00:08:33;;;;;;;;;;;;;;;19.69;66.47;101577.19;7402948;19;1054;-51
2022/11/10 00:11:05;;;;;;;;;;;;;;;19.68;66.21;101583.53;7398812;19;2083;-51
2022/11/10 00:16:59;;;;;;;;;;;;;;;19.62;66.15;101578.66;7399645;19;1850;-51
2022/11/10 00:19:05;;;;;;;;;;;;;;;19.64;65.84;101574.88;7402253;19;1899;-51
2022/11/10 00:21:35;;;;;;;;;;;;;;;19.67;66.31;101571.09;7398017;19;1932;-51
2022/11/10 00:24:03;;;;;;;;;;;;;;;19.63;66.14;101573.16;7400461;19;1626;-51
2022/11/10 00:26:31;;;;;;;;;;;;;;;19.64;66.33;101571.34;7400318;19;1834;-51
2022/11/10 00:29:02;;;;;;;;;;;;;;;19.63;66.33;101565.09;7400414;19;1697;-51
2022/11/10 00:31:30;;;;;;;;;;;;;;;19.61;65.59;101563.53;7400758;19;1811;-51
2022/11/10 00:33:59;;;;;;;;;;;;;;;19.65;66.09;101578.41;7399813;19;2048;-51
2022/11/10 00:36:27;;;;;;;;;;;;;;;19.61;66.08;101555.47;7401526;19;1815;-50
2022/11/10 00:38:56;;;;;;;;;;;;;;;19.60;66.36;101546.59;7401978;19;1047;-50
2022/11/10 00:41:24;;;;;;;;;;;;;;;19.60;66.21;101560.00;7399873;19;1975;-50
2022/11/10 00:43:52;;;;;;;;;;;;;;;19.58;66.76;101572.69;7399285;19;1552;-51
2022/11/10 00:46:23;;;;;;;;;;;;;;;19.59;66.43;101552.06;7399458;19;1556;-50
2022/11/10 00:48:51;;;;;;;;;;;;;;;19.56;66.34;101563.91;7401548;19;1583;-51
2022/11/10 00:51:22;;;;;;;;;;;;;;;19.56;66.11;101547.78;7399429;19;1721;-51
2022/11/10 00:53:50;;;;;;;;;;;;;;;19.60;66.13;101553.78;7401633;19;1035;-50
2022/11/10 00:56:18;;;;;;;;;;;;;;;19.57;65.94;101552.19;7399053;19;1879;-50
2022/11/10 00:58:47;;;;;;;;;;;;;;;19.57;66.33;101559.38;7399043;19;1671;-50
2022/11/10 01:01:16;;;;;;;;;;;;;;;19.58;66.40;101550.38;7396488;19;1684;-50
2022/11/10 01:03:47;;;;;;;;;;;;;;;19.55;66.55;101539.88;7400415;19;1857;-51
2022/11/10 01:06:17;;;;;;;;;;;;;;;19.56;66.33;101563.03;7399737;19;1726;-50
2022/11/10 01:08:45;;;;;;;;;;;;;;;19.54;66.13;101547.06;7400317;19;1102;-50
2022/11/10 01:11:15;;;;;;;;;;;;;;;19.55;66.35;101566.69;7397074;19;1782;-51
2022/11/10 01:13:43;;;;;;;;;;;;;;;19.55;66.34;101561.31;7400597;19;1828;-50
2022/11/10 01:16:13;;;;;;;;;;;;;;;19.55;66.25;101555.97;7400765;19;1441;-50
2022/11/10 01:18:41;;;;;;;;;;;;;;;19.51;66.01;101554.50;7402800;19;1881;-50
2022/11/10 01:21:12;;;;;;;;;;;;;;;19.50;66.26;101531.31;7404049;19;1757;-51
2022/11/10 01:23:40;;;;;;;;;;;;;;;19.51;66.19;101557.16;7406972;19;1857;-50
2022/11/10 01:26:09;;;;;;;;;;;;;;;19.50;66.19;101536.66;7405794;19;1517;-51
2022/11/10 01:28:39;;;;;;;;;;;;;;;19.51;65.92;101557.16;7407329;19;1792;-50
2022/11/10 01:31:08;;;;;;;;;;;;;;;19.51;66.07;101558.03;7406818;19;1565;-50
2022/11/10 01:33:36;;;;;;;;;;;;;;;19.50;66.00;101550.09;7406711;19;1820;-51
2022/11/10 01:36:05;;;;;;;;;;;;;;;19.47;66.41;101549.34;7406215;19;1729;-51
2022/11/10 01:38:36;;;;;;;;;;;;;;;19.47;66.03;101549.34;7407577;19;1102;-50
2022/11/10 01:41:05;;;;;;;;;;;;;;;19.46;65.96;101542.28;7404876;19;1620;-50
2022/11/10 01:43:34;;;;;;;;;;;;;;;19.48;65.97;101543.03;7406762;19;1382;-50
2022/11/10 01:46:03;;;;;;;;;;;;;;;19.45;65.98;101537.03;7404110;19;1853;-51
2022/11/10 01:48:34;;;;;;;;;;;;;;;19.47;66.28;101537.78;7406317;19;1568;-51
2022/11/10 01:51:05;;;;;;;;;;;;;;;19.46;65.89;101541.44;7406308;19;1572;-51
2022/11/10 01:53:38;;;;;;;;;;;;;;;19.47;65.91;101541.31;7406435;19;1410;-50
2022/11/10 01:56:09;;;;;;;;;;;;;;;19.46;65.87;101544.13;7403500;19;1717;-50
2022/11/10 01:58:39;;;;;;;;;;;;;;;19.46;65.89;101552.19;7404311;19;1587;-51
2022/11/10 02:01:08;;;;;;;;;;;;;;;19.44;66.18;101532.66;7406756;19;1895;-51
2022/11/10 02:03:40;;;;;;;;;;;;;;;19.92;65.29;101555.78;7405566;19;1533;-50
2022/11/10 02:06:09;;;;;;;;;;;;;;;20.26;63.84;101527.06;7402644;19;1833;-51
2022/11/10 02:08:40;;;;;;;;;;;;;;;20.05;64.33;101537.69;7406231;19;1685;-50
2022/11/10 02:11:08;;;;;;;;;;;;;;;19.99;64.86;101548.94;7402958;19;1857;-51
2022/11/10 02:13:36;;;;;;;;;;;;;;;20.09;64.65;101541.84;7403369;19;1398;-50
2022/11/10 02:16:05;;;;;;;;;;;;;;;20.14;64.39;101542.34;7404889;19;1433;-51
2022/11/10 02:18:33;;;;;;;;;;;;;;;20.27;64.39;101537.69;7405436;19;1579;-50
2022/11/10 02:21:04;;;;;;;;;;;;;;;20.32;64.06;101533.75;7404290;19;1635;-51
2022/11/10 02:23:46;;;;;;;;;;;;;;;20.35;64.26;101552.31;7406107;19;1417;-50
2022/11/10 02:26:16;;;;;;;;;;;;;;;20.40;63.75;101544.72;7402631;19;1921;-51
2022/11/10 02:28:44;;;;;;;;;;;;;;;20.40;64.06;101553.63;7403191;19;1735;-50
2022/11/10 02:31:12;;;;;;;;;;;;;;;20.39;64.22;101537.63;7405368;19;1587;-50
2022/11/10 02:33:40;;;;;;;;;;;;;;;20.41;64.11;101539.25;7404452;19;1852;-51
2022/11/10 02:36:11;;;;;;;;;;;;;;;20.51;64.00;101555.44;7403248;19;1405;-50
2022/11/10 02:38:40;;;;;;;;;;;;;;;20.54;64.11;101543.59;7406174;19;1662;-50
2022/11/10 02:41:09;;;;;;;;;;;;;;;20.58;63.46;101553.94;7402461;19;1682;-50
2022/11/10 02:43:38;;;;;;;;;;;;;;;20.65;63.64;101552.50;7403233;19;1568;-51
2022/11/10 02:46:06;;;;;;;;;;;;;;;20.72;63.21;101552.84;7402197;19;1854;-51
2022/11/10 02:48:34;;;;;;;;;;;;;;;20.93;63.17;101558.28;7404201;19;1410;-50
2022/11/10 02:51:02;;;;;;;;;;;;;;;20.81;63.17;101561.97;7403200;19;1563;-51
2022/11/10 02:53:33;;;;;;;;;;;;;;;20.79;62.98;101564.81;7404314;19;1542;-50
2022/11/10 02:56:01;;;;;;;;;;;;;;;20.88;63.26;101551.56;7402325;19;1698;-50
2022/11/10 02:58:29;;;;;;;;;;;;;;;20.87;62.87;101564.16;7404579;19;1612;-51
2022/11/10 03:00:58;;;;;;;;;;;;;;;20.81;63.31;101561.97;7400788;19;2034;-71
2022/11/10 03:03:26;;;;;;;;;;;;;;;20.88;63.04;101560.47;7410996;19;1506;-72
2022/11/10 03:05:54;;;;;;;;;;;;;;;21.02;62.51;101568.22;7408731;19;1856;-72
2022/11/10 03:08:23;;;;;;;;;;;;;;;21.05;62.20;101567.97;7413050;19;1312;-71
2022/11/10 03:10:54;;;;;;;;;;;;;;;20.90;63.10;101563.03;7407544;19;1611;-71
2022/11/10 03:13:22;;;;;;;;;;;;;;;20.89;62.71;101559.50;7409952;19;1355;-72
2022/11/10 03:15:51;;;;;;;;;;;;;;;21.00;62.81;101577.41;7411208;19;1343;-71
2022/11/10 03:18:19;;;;;;;;;;;;;;;21.03;62.43;101563.72;7412766;19;1045;-71
2022/11/10 03:20:48;;;;;;;;;;;;;;;21.05;62.30;101570.69;7408297;19;1781;-71
2022/11/10 03:23:17;;;;;;;;;;;;;;;20.94;62.70;101570.72;7411702;19;1315;-71
2022/11/10 03:25:45;;;;;;;;;;;;;;;21.03;62.87;101580.72;7410148;19;1829;-71
2022/11/10 03:28:16;;;;;;;;;;;;;;;21.06;62.55;101580.44;7410025;19;1245;-71
2022/11/10 03:30:45;;;;;;;;;;;;;;;20.97;62.59;101578.53;7409813;19;1363;-71
2022/11/10 03:33:14;;;;;;;;;;;;;;;20.89;63.02;101574.75;7412354;19;1029;-71
2022/11/10 03:35:42;;;;;;;;;;;;;;;21.03;62.64;101580.72;7411527;19;1774;-71
2022/11/10 03:38:12;;;;;;;;;;;;;;;21.09;62.22;101582.03;7410749;19;1519;-71
2022/11/10 03:40:40;;;;;;;;;;;;;;;21.12;62.33;101580.91;7406836;19;1292;-71
2022/11/10 03:43:08;;;;;;;;;;;;;;;21.00;62.30;101566.66;7409928;19;1394;-72
2022/11/10 03:45:39;;;;;;;;;;;;;;;21.11;62.44;101573.81;7409135;19;1850;-71
2022/11/10 03:48:08;;;;;;;;;;;;;;;21.13;62.13;101579.91;7411861;19;1030;-71
2022/11/10 03:50:37;;;;;;;;;;;;;;;21.09;62.03;101581.16;7411750;19;1013;-71
2022/11/10 03:53:05;;;;;;;;;;;;;;;21.02;62.68;101584.38;7408546;19;1754;-71
2022/11/10 03:55:34;;;;;;;;;;;;;;;21.18;62.00;101585.78;7407316;19;1512;-71
2022/11/10 03:58:03;;;;;;;;;;;;;;;21.19;61.94;101584.81;7410811;19;1561;-71
2022/11/10 04:00:31;;;;;;;;;;;;;;;20.92;62.93;101580.75;7410238;19;1616;-71
2022/11/10 04:03:02;;;;;;;;;;;;;;;20.96;62.55;101579.50;7412021;19;1025;-71
2022/11/10 04:10:55;;;;;;;;;;;;;;;21.18;61.66;101585.78;7407357;19;1793;-71
2022/11/10 04:16:04;;;;;;;;;;;;;;;21.21;61.72;101588.22;7410409;19;1382;-72
2022/11/10 04:18:35;;;;;;;;;;;;;;;21.19;61.88;101591.03;7409876;19;1384;-71
2022/11/10 04:21:04;;;;;;;;;;;;;;;21.10;62.13;101593.63;7410255;19;1398;-71
2022/11/10 04:23:33;;;;;;;;;;;;;;;21.04;62.26;101593.16;7410846;19;1003;-71
2022/11/10 04:28:44;;;;;;;;;;;;;;;21.21;61.68;101583.69;7408826;19;1394;-71
2022/11/10 04:31:12;;;;;;;;;;;;;;;21.21;61.62;101599.81;7407982;19;1481;-71
2022/11/10 04:33:44;;;;;;;;;;;;;;;21.13;61.96;101602.31;7406927;19;1692;-71
2022/11/10 04:36:13;;;;;;;;;;;;;;;21.17;61.76;101592.13;7408245;19;1386;-71
2022/11/10 04:38:42;;;;;;;;;;;;;;;21.21;61.72;101596.28;7410626;19;1001;-71
2022/11/10 04:41:10;;;;;;;;;;;;;;;21.09;62.00;101590.09;7407213;19;1659;-71
2022/11/10 04:43:39;;;;;;;;;;;;;;;21.11;62.38;101606.97;7406512;19;1306;-71
2022/11/10 04:46:09;;;;;;;;;;;;;;;21.20;62.00;101610.69;7407274;19;1853;-71
2022/11/10 04:48:37;;;;;;;;;;;;;;;21.22;61.71;101608.72;7408850;19;1284;-71
2022/11/10 04:51:08;;;;;;;;;;;;;;;21.25;61.48;101605.78;7407766;19;1384;-71
2022/11/10 04:53:38;;;;;;;;;;;;;;;21.11;61.66;101601.59;7413106;19;943;-73
2022/11/10 04:56:06;;;;;;;;;;;;;;;21.08;62.37;101601.81;7413233;19;1589;-72
2022/11/10 04:58:34;;;;;;;;;;;;;;;21.19;62.01;101603.63;7408247;19;1449;-70
2022/11/10 05:01:03;;;;;;;;;;;;;;;21.11;62.48;101615.03;7408006;19;1609;-71
2022/11/10 05:18:21;;;;;;;;;;;;;;;21.28;62.21;101608.22;6813987;19;10002410;-49
2022/11/10 05:20:52;;;;;;;;;;;;;;;21.18;62.52;101616.19;7428370;19;2762;-49
2022/11/10 05:26:00;;;;;;;;;;;;;;;21.28;63.13;101618.97;7431996;19;2299;-48
2022/11/10 05:28:33;;;;;;;;;;;;;;;21.23;63.89;101631.97;7434220;19;2051;-51
2022/11/10 05:31:15;;;;;;;;;;;;;;;21.12;63.95;101630.16;7436845;19;1994;-49
2022/11/10 05:33:45;;;;;;;;;;;;;;;21.39;63.24;101626.16;7436434;19;1949;-49
2022/11/10 05:36:18;;;;;;;;;;;;;;;21.45;63.61;101639.97;7435981;19;1333;-50
2022/11/10 05:38:50;;;;;;;;;;;;;;;21.30;64.07;101626.91;7434369;19;1110;-50
2022/11/10 05:41:18;;;;;;;;;;;;;;;21.17;63.18;101637.84;7435537;19;1754;-50
2022/11/10 05:43:51;;;;;;;;;;;;;;;21.09;63.47;101656.47;7436681;19;1560;-50
2022/11/10 05:46:20;;;;;;;;;;;;;;;21.07;63.82;101648.53;7432605;19;1865;-49
2022/11/10 05:48:52;;;;;;;;;;;;;;;21.01;64.02;101643.69;7436184;19;1981;-48
2022/11/10 05:51:25;;;;;;;;;;;;;;;20.97;62.34;101664.59;7435628;19;1735;-47
2022/11/10 05:53:55;;;;;;;;;;;;;;;20.97;60.58;101663.72;7434838;19;1378;-47
2022/11/10 05:56:27;;;;;;;;;;;;;;;20.97;60.86;101672.66;7432755;19;1956;-48
2022/11/10 05:58:56;;;;;;;;;;;;;;;20.91;61.52;101674.97;7435048;19;1649;-47
2022/11/10 06:01:25;;;;;;;;;;;;;;;20.93;61.39;101679.25;7433487;19;1566;-47
2022/11/10 06:03:56;;;;;;;;;;;;;;;20.97;61.57;101675.34;7435898;19;1688;-47
2022/11/10 06:06:31;;;;;;;;;;;;;;;20.98;61.65;101693.16;7432685;19;2105;-48
2022/11/10 06:09:07;;;;;;;;;;;;;;;20.96;61.69;101672.78;7434861;19;1808;-47
2022/11/10 06:11:37;;;;;;;;;;;;;;;20.89;61.57;101693.94;7436024;19;1013;-47
2022/11/10 06:14:06;;;;;;;;;;;;;;;20.82;61.61;101704.31;7434273;19;1786;-46
2022/11/10 06:16:34;;;;;;;;;;;;;;;20.75;60.74;101707.63;7433175;19;1858;-47
2022/11/10 06:19:02;;;;;;;;;;;;;;;20.80;60.90;101700.06;7407486;19;1992;-47
2022/11/10 06:21:37;;;;;;;;;;;;;;;20.85;61.52;101705.91;7405637;19;2207;-47
2022/11/10 06:24:13;;;;;;;;;;;;;;;20.68;61.96;101693.00;7406212;19;1426;-46
2022/11/10 06:26:43;;;;;;;;;;;;;;;20.66;62.69;101710.06;7405065;19;1842;-47
2022/11/10 06:29:12;;;;;;;;;;;;;;;20.65;64.05;101692.25;7404225;19;1879;-47
2022/11/10 06:31:46;;;;;;;;;;;;;;;20.34;60.05;101709.94;7404033;19;1086;-47
2022/11/10 06:34:15;;;;;;;;;;;;;;;20.19;61.94;101717.38;7406482;19;1514;-47
2022/11/10 06:36:46;;;;;;;;;;;;;;;20.30;61.80;101707.63;7403706;19;1626;-47
2022/11/10 06:39:18;;;;;;;;;;;;;;;20.32;60.92;101705.66;7403018;19;1893;-47
2022/11/10 06:41:47;;;;;;;;;;;;;;;20.29;60.86;101716.66;7403693;19;1922;-47
2022/11/10 06:44:16;;;;;;;;;;;;;;;20.27;60.91;101716.75;7405967;19;1842;-48
2022/11/10 06:46:53;;;;;;;;;;;;;;;20.19;61.01;101698.59;7400481;19;1958;-48
2022/11/10 06:49:23;;;;;;;;;;;;;;;20.23;60.61;101726.03;7406734;19;1087;-47
2022/11/10 06:51:59;;;;;;;;;;;;;;;20.16;60.74;101722.97;7402342;19;2007;-47
2022/11/10 06:54:27;;;;;;;;;;;;;;;20.13;60.57;101717.00;7404108;19;1891;-47
2022/11/10 06:56:55;;;;;;;;;;;;;;;20.09;60.52;101719.06;7403146;19;1972;-47
2022/11/10 06:59:24;;;;;;;;;;;;;;;20.07;60.13;101718.31;7405252;19;1801;-47
2022/11/10 07:01:58;;;;;;;;;;;;;;;20.04;60.71;101691.72;7401622;19;1737;-48
2022/11/10 07:04:30;;;;;;;;;;;;;;;19.99;61.08;101715.38;7403410;19;1033;-46
2022/11/10 07:07:05;;;;;;;;;;;;;;;19.98;60.97;101705.63;7400875;19;1849;-47
2022/11/10 07:09:38;;;;;;;;;;;;;;;20.00;60.66;101698.31;7402807;19;1329;-47
2022/11/10 07:12:08;;;;;;;;;;;;;;;19.98;60.53;101719.06;7405734;19;1242;-47
2022/11/10 07:14:36;;;;;;;;;;;;;;;19.98;61.65;101713.69;7402822;19;1647;-47
2022/11/10 07:17:04;;;;;;;;;;;;;;;20.00;60.51;101722.47;7400849;19;1766;-47
2022/11/10 07:19:34;;;;;;;;;;;;;;;19.97;61.18;101711.97;7402516;19;1660;-47
2022/11/10 07:22:05;;;;;;;;;;;;;;;19.98;61.22;101725.28;7402633;19;2056;-47
2022/11/10 07:24:36;;;;;;;;;;;;;;;19.99;60.72;101734.16;7402221;19;1617;-47
2022/11/10 07:27:04;;;;;;;;;;;;;;;20.00;60.64;101733.22;7405347;19;1851;-47
2022/11/10 07:29:36;;;;;;;;;;;;;;;19.98;61.61;101711.00;7402313;19;1968;-47
2022/11/10 07:32:08;;;;;;;;;;;;;;;20.00;61.15;101733.22;7404340;19;2013;-47
2022/11/10 07:34:37;;;;;;;;;;;;;;;19.98;61.10;101719.06;7403365;19;1795;-47
2022/11/10 07:37:12;;;;;;;;;;;;;;;20.02;60.87;101731.25;7402453;19;1618;-47
2022/11/10 07:39:42;;;;;;;;;;;;;;;20.03;61.36;101719.53;7401737;19;2082;-47
2022/11/10 07:42:12;;;;;;;;;;;;;;;20.04;61.24;101723.94;7405016;19;1917;-47
2022/11/10 07:44:44;;;;;;;;;;;;;;;20.02;61.59;101715.16;7401750;19;2026;-47
2022/11/10 07:47:14;;;;;;;;;;;;;;;20.02;61.66;101737.47;7398518;19;1842;-48
2022/11/10 07:49:44;;;;;;;;;;;;;;;20.03;61.32;101730.28;7404569;19;1040;-47
2022/11/10 07:52:18;;;;;;;;;;;;;;;20.01;61.94;101722.34;7401966;19;1973;-48
2022/11/10 07:54:50;;;;;;;;;;;;;;;20.03;61.71;101722.22;7401925;19;1968;-47
2022/11/10 07:57:19;;;;;;;;;;;;;;;20.00;61.57;101727.84;7402247;19;1245;-47
2022/11/10 07:59:48;;;;;;;;;;;;;;;20.07;61.30;101739.81;7403915;19;1936;-47
2022/11/10 08:02:18;;;;;;;;;;;;;;;20.05;61.18;101731.00;7400104;19;1896;-47
2022/11/10 08:04:48;;;;;;;;;;;;;;;20.06;61.01;101732.75;7403126;19;1041;-46
2022/11/10 08:07:21;;;;;;;;;;;;;;;20.08;61.18;101730.78;7399945;19;1872;-47
2022/11/10 08:09:54;;;;;;;;;;;;;;;20.13;60.46;101728.59;7400743;19;1775;-48
2022/11/10 08:12:25;;;;;;;;;;;;;;;20.14;60.70;101724.94;7400767;19;1478;-47
2022/11/10 08:14:53;;;;;;;;;;;;;;;20.19;60.66;101716.50;7401710;19;1856;-47
2022/11/10 08:17:22;;;;;;;;;;;;;;;20.14;60.49;101730.31;7399345;19;1855;-47
2022/11/10 08:19:50;;;;;;;;;;;;;;;20.13;60.61;101733.94;7399178;19;1110;-47
2022/11/10 08:22:23;;;;;;;;;;;;;;;20.13;60.32;101733.94;7400885;19;2027;-47
2022/11/10 08:24:51;;;;;;;;;;;;;;;20.15;60.33;101731.16;7400738;19;2062;-47
2022/11/10 08:27:19;;;;;;;;;;;;;;;20.17;60.32;101735.41;7400154;19;1853;-47
2022/11/10 08:29:49;;;;;;;;;;;;;;;20.12;60.94;101723.34;7400496;19;1977;-47
2022/11/10 08:32:18;;;;;;;;;;;;;;;20.16;60.78;101739.09;7399976;19;1974;-48
2022/11/10 08:34:46;;;;;;;;;;;;;;;20.17;60.71;101740.78;7402754;19;1009;-47
2022/11/10 08:37:15;;;;;;;;;;;;;;;20.15;60.23;101734.69;7400506;19;1625;-47
2022/11/10 08:39:52;;;;;;;;;;;;;;;20.17;60.11;101740.78;7400887;19;1564;-47
2022/11/10 08:42:22;;;;;;;;;;;;;;;20.17;59.86;101724.69;7400609;19;1396;-47
2022/11/10 08:44:51;;;;;;;;;;;;;;;20.27;59.42;101743.63;7399724;19;1940;-47
2022/11/10 08:47:20;;;;;;;;;;;;;;;20.27;59.42;101736.44;7397528;19;2086;-47
2022/11/10 08:49:52;;;;;;;;;;;;;;;20.23;59.31;101724.22;7397278;19;1338;-47
2022/11/10 08:52:20;;;;;;;;;;;;;;;20.24;59.78;101720.56;7400348;19;2076;-47
2022/11/10 08:54:53;;;;;;;;;;;;;;;20.23;59.63;101740.34;7400351;19;1967;-47
2022/11/10 08:57:21;;;;;;;;;;;;;;;20.24;59.69;101736.66;7401266;19;1579;-47
2022/11/10 08:59:50;;;;;;;;;;;;;;;20.25;59.27;101722.28;7402251;19;1856;-47
2022/11/10 09:02:19;;;;;;;;;;;;;;;20.22;59.31;101727.03;7399708;19;1684;-47
2022/11/10 09:04:48;;;;;;;;;;;;;;;20.24;59.41;101725.91;7399225;19;1024;-47
2022/11/10 09:07:18;;;;;;;;;;;;;;;20.22;59.57;101717.13;7399256;19;1867;-47
2022/11/10 09:09:46;;;;;;;;;;;;;;;20.23;59.42;101721.53;7399706;19;1596;-47
2022/11/10 09:12:21;;;;;;;;;;;;;;;20.26;59.20;101715.06;7400680;19;1762;-47
2022/11/10 09:14:51;;;;;;;;;;;;;;;20.26;59.09;101721.28;7402517;19;1850;-47
2022/11/10 09:17:20;;;;;;;;;;;;;;;20.32;59.20;101737.91;7400484;19;1874;-47
2022/11/10 09:19:49;;;;;;;;;;;;;;;20.30;59.45;101732.66;7401608;19;1040;-46
2022/11/10 09:22:23;;;;;;;;;;;;;;;20.25;59.79;101727.66;7401592;19;1458;-47
2022/11/10 09:24:52;;;;;;;;;;;;;;;20.26;59.44;101715.91;7398768;19;2055;-47
2022/11/10 09:27:36;;;;;;;;;;;;;;;20.23;59.74;101732.28;7399933;19;1853;-46
2022/11/10 09:30:10;;;;;;;;;;;;;;;20.27;59.65;101716.75;7400054;19;1929;-47
2022/11/10 09:32:38;;;;;;;;;;;;;;;20.26;59.60;101718.59;7398489;19;1855;-47
2022/11/10 09:35:13;;;;;;;;;;;;;;;20.29;59.79;101717.50;7398861;19;1047;-47
2022/11/10 09:37:45;;;;;;;;;;;;;;;20.33;59.77;101723.47;7399168;19;1719;-47
2022/11/10 09:40:18;;;;;;;;;;;;;;;20.29;59.66;101722.00;7398265;19;1612;-47
2022/11/10 09:42:50;;;;;;;;;;;;;;;20.31;60.02;101717.38;7397780;19;1669;-47
2022/11/10 09:45:30;;;;;;;;;;;;;;;20.39;60.01;101710.44;7398598;19;2061;-47
2022/11/10 09:48:04;;;;;;;;;;;;;;;20.34;60.74;101709.94;7397997;19;1873;-46
2022/11/10 09:50:38;;;;;;;;;;;;;;;20.33;60.47;101718.09;7398787;19;1173;-47
2022/11/10 09:53:18;;;;;;;;;;;;;;;20.23;60.19;101720.66;7402190;19;2086;-47
2022/11/10 09:55:52;;;;;;;;;;;;;;;20.17;59.95;101713.94;7407668;19;1503;-47
2022/11/10 09:58:24;;;;;;;;;;;;;;;20.14;59.30;101706.13;7404972;19;1691;-47
2022/11/10 10:01:06;;;;;;;;;;;;;;;20.13;59.28;101715.16;7408345;19;1924;-47
2022/11/10 10:03:40;;;;;;;;;;;;;;;20.11;59.01;101710.88;7407496;19;1202;-47
2022/11/10 10:06:25;;;;;;;;;;;;;;;20.13;58.24;101723.22;7404029;19;1039;-47
2022/11/10 10:09:05;;;;;;;;;;;;;;;20.11;58.04;101701.00;7401346;19;2060;-47
2022/11/10 10:11:51;;;;;;;;;;;;;;;20.14;57.57;101698.09;7407186;19;1829;-47
2022/11/10 10:14:34;;;;;;;;;;;;;;;20.13;57.52;101707.09;7407534;19;1730;-46
2022/11/10 10:17:10;;;;;;;;;;;;;;;20.08;57.98;101695.88;7402351;19;1702;-47
2022/11/10 10:19:51;;;;;;;;;;;;;;;20.09;56.87;101708.31;7406493;19;1025;-48
2022/11/10 10:22:47;;;;;;;;;;;;;;;20.26;57.71;101723.97;7405763;19;1953;-48
2022/11/10 10:25:18;;;;;;;;;;;;;;;20.30;57.80;101702.25;7404542;19;1825;-49
2022/11/10 10:27:53;;;;;;;;;;;;;;;20.25;57.92;101694.53;7404425;19;1864;-49
2022/11/10 10:30:22;;;;;;;;;;;;;;;20.30;57.95;101702.25;7404820;19;1974;-48
2022/11/10 10:32:58;;;;;;;;;;;;;;;20.41;58.35;101699.56;7404809;19;1375;-49
2022/11/10 10:35:42;;;;;;;;;;;;;;;20.43;58.67;101692.22;7402741;19;1044;-49
2022/11/10 10:38:28;;;;;;;;;;;;;;;20.43;59.14;101694.91;7406799;19;2011;-48
2022/11/10 10:41:00;;;;;;;;;;;;;;;20.46;59.39;101700.91;7405459;19;1614;-48
2022/11/10 10:43:32;;;;;;;;;;;;;;;20.52;59.91;101696.03;7405880;19;1811;-48
2022/11/10 10:46:11;;;;;;;;;;;;;;;20.55;61.54;101696.63;7406083;19;1761;-49
2022/11/10 10:48:46;;;;;;;;;;;;;;;20.45;60.64;101699.22;7403081;19;1851;-50
2022/11/10 10:51:28;;;;;;;;;;;;;;;20.44;61.46;101693.94;7406444;19;1653;-50
2022/11/10 10:54:01;;;;;;;;;;;;;;;20.35;62.54;101694.66;7402565;19;1853;-50
2022/11/10 10:56:37;;;;;;;;;;;;;;;20.23;61.25;101683.06;7406137;19;1564;-50
2022/11/10 10:59:09;;;;;;;;;;;;;;;20.32;60.21;101678.81;7403683;19;1702;-50
2022/11/10 11:01:39;;;;;;;;;;;;;;;20.36;60.56;101680.28;7404599;19;1048;-49
2022/11/10 11:04:28;;;;;;;;;;;;;;;20.32;60.27;101673.44;7406522;19;1017;-49
2022/11/10 11:06:59;;;;;;;;;;;;;;;20.34;60.36;101674.16;7401871;19;2036;-50
2022/11/10 11:09:31;;;;;;;;;;;;;;;20.36;60.99;101669.53;7399102;19;1839;-50
2022/11/10 11:12:07;;;;;;;;;;;;;;;20.34;60.79;101676.84;7404010;19;1764;-49
2022/11/10 11:14:40;;;;;;;;;;;;;;;20.36;60.74;101680.28;7402356;19;1585;-50
2022/11/10 11:17:20;;;;;;;;;;;;;;;20.33;61.63;101680.50;7401426;19;1425;-50
2022/11/10 11:20:02;;;;;;;;;;;;;;;20.32;61.48;101673.44;7403867;19;1246;-50
2022/11/10 11:22:47;;;;;;;;;;;;;;;20.30;60.98;101659.28;7403018;19;1438;-50
2022/11/10 11:25:22;;;;;;;;;;;;;;;20.31;61.62;101671.72;7404162;19;1384;-50
2022/11/10 11:27:58;;;;;;;;;;;;;;;20.32;62.39;101676.13;7403454;19;1837;-50
2022/11/10 11:30:32;;;;;;;;;;;;;;;20.31;62.23;101674.41;7402973;19;1578;-50
2022/11/10 11:33:16;;;;;;;;;;;;;;;20.34;61.53;101666.13;7404054;19;1801;-50
2022/11/10 11:35:53;;;;;;;;;;;;;;;20.36;61.30;101670.38;7401589;19;1791;-50
2022/11/10 11:38:42;;;;;;;;;;;;;;;20.41;62.54;101664.63;7403890;19;1946;-50
2022/11/10 11:41:16;;;;;;;;;;;;;;;20.49;61.16;101659.47;7403018;19;1780;-50
2022/11/10 11:44:01;;;;;;;;;;;;;;;20.43;61.08;101662.66;7403852;19;1404;-50
2022/11/10 11:46:49;;;;;;;;;;;;;;;20.37;60.77;101665.84;7404153;19;1452;-50
2022/11/10 11:52:34;;;;;;;;;;;;;;;20.47;61.13;101658.75;7399766;19;1679;-50
2022/11/10 11:55:14;;;;;;;;;;;;;;;20.51;61.34;101660.22;7404170;19;1416;-50
2022/11/10 11:58:01;;;;;;;;;;;;;;;20.58;60.93;101666.81;7402435;19;1603;-49
2022/11/10 12:00:36;;;;;;;;;;;;;;;20.69;61.50;101667.81;7403392;19;1629;-54
2022/11/10 12:03:42;;;;;;;;;;;;;;;20.76;61.28;101658.28;7403595;19;1787;-53
2022/11/10 12:06:27;;;;;;;;;;;;;;;20.80;61.51;101670.47;7403139;19;1453;-53
2022/11/10 12:09:15;;;;;;;;;;;;;;;20.79;61.50;101666.06;7400166;19;1960;-53
2022/11/10 12:11:56;;;;;;;;;;;;;;;20.79;61.64;101655.31;7400884;19;1596;-53
2022/11/10 12:14:29;;;;;;;;;;;;;;;20.79;61.42;101656.19;7402142;19;1634;-53
2022/11/10 12:17:02;;;;;;;;;;;;;;;20.78;61.64;101664.38;7398106;19;1869;-54
2022/11/10 12:19:35;;;;;;;;;;;;;;;20.78;61.58;101669.75;7401934;19;2086;-53
2022/11/10 12:22:11;;;;;;;;;;;;;;;20.77;62.08;101657.28;7399669;19;1641;-53
2022/11/10 12:24:55;;;;;;;;;;;;;;;20.74;62.02;101665.63;7402178;19;1629;-54
2022/11/10 12:27:54;;;;;;;;;;;;;;;20.78;61.76;101670.59;7401896;19;1405;-54
2022/11/10 12:30:30;;;;;;;;;;;;;;;20.77;62.14;101668.03;7400235;19;1831;-54
2022/11/10 12:33:04;;;;;;;;;;;;;;;20.81;62.04;101664.13;7402925;19;1469;-54
2022/11/10 12:35:38;;;;;;;;;;;;;;;20.78;62.54;101677.81;7402872;19;1795;-53
2022/11/10 12:38:13;;;;;;;;;;;;;;;20.83;62.80;101689.91;7400462;19;2053;-54
2022/11/10 12:40:45;;;;;;;;;;;;;;;20.82;63.02;101673.91;7398687;19;1791;-53
2022/11/10 12:43:23;;;;;;;;;;;;;;;20.80;61.97;101678.56;7399926;19;2177;-54
2022/11/10 12:45:54;;;;;;;;;;;;;;;20.68;63.11;101668.81;7399971;19;1667;-54
2022/11/10 12:48:23;;;;;;;;;;;;;;;20.60;63.15;101672.94;7396776;19;1865;-54
2022/11/10 12:51:10;;;;;;;;;;;;;;;20.57;62.85;101673.19;7395476;19;1824;-53
2022/11/10 12:53:40;;;;;;;;;;;;;;;20.57;62.63;101672.31;7398924;19;1522;-54
2022/11/10 12:56:10;;;;;;;;;;;;;;;20.52;62.35;101663.78;7396812;19;1427;-53
2022/11/10 12:58:45;;;;;;;;;;;;;;;20.51;62.52;101679.03;7397764;19;1965;-54
2022/11/10 13:01:19;;;;;;;;;;;;;;;20.47;62.61;101672.19;7402029;19;1436;-53
2022/11/10 13:04:02;;;;;;;;;;;;;;;20.43;62.49;101671.59;7400121;19;2037;-53
2022/11/10 13:06:49;;;;;;;;;;;;;;;20.42;62.80;101679.78;7400020;19;1508;-53
2022/11/10 13:09:27;;;;;;;;;;;;;;;20.38;62.60;101672.94;7398126;19;1846;-54
2022/11/10 13:12:17;;;;;;;;;;;;;;;20.41;62.99;101686.13;7399236;19;1607;-53
2022/11/10 13:14:49;;;;;;;;;;;;;;;20.36;62.78;101675.75;7397755;19;1765;-53
2022/11/10 13:17:32;;;;;;;;;;;;;;;20.35;63.01;101674.06;7398036;19;1349;-54
2022/11/10 13:20:05;;;;;;;;;;;;;;;20.34;62.98;101674.16;7401212;19;1836;-53
2022/11/10 13:22:40;;;;;;;;;;;;;;;20.37;62.96;101681.97;7400247;19;1636;-53
2022/11/10 13:25:23;;;;;;;;;;;;;;;20.31;63.07;101671.72;7398648;19;1630;-53
2022/11/10 13:27:53;;;;;;;;;;;;;;;20.30;63.28;101684.28;7402800;19;1926;-53
2022/11/10 13:30:40;;;;;;;;;;;;;;;20.37;62.56;101681.97;7405438;19;1857;-53
2022/11/10 13:33:24;;;;;;;;;;;;;;;20.38;62.80;101678.31;7408850;19;2088;-54
2022/11/10 13:35:59;;;;;;;;;;;;;;;20.37;62.66;101682.84;7408750;19;1470;-53
2022/11/10 13:38:48;;;;;;;;;;;;;;;;;;;;;
2022/11/10 13:41:22;;;;;;;;;;;;;;;20.30;63.15;101691.50;7405232;19;1441;-53
2022/11/10 13:43:54;;;;;;;;;;;;;;;20.26;63.15;101685.53;7407354;19;1568;-53
2022/11/10 13:46:34;;;;;;;;;;;;;;;20.22;63.40;101684.91;7407351;19;1874;-54
2022/11/10 13:49:23;;;;;;;;;;;;;;;20.22;63.19;101689.44;7407217;19;1860;-53